sensor_id;sensor_type;location;lat;lon;timestamp;P1;durP1;ratioP1;P2;durP2;ratioP2
16391;SDS011;8305;-33.882;151.134;2022-12-18T00:00:31;2.45;;;0.43;;
16391;SDS011;8305;-33.882;151.134;2022-12-18T00:03:02;2.63;;;1.17;;
16391;SDS011;8305;-33.882;151.134;2022-12-18T00:05:33;1.15;;;0.50;;
16391;SDS011;8305;-33.882;151.134;2022-12-18T00:08:05;1.85;;;1.00;;
16391;SDS011;8305;-33.882;151.134;2022-12-18T00:10:36;2.83;;;0.90;;
16391;SDS011;8305;-33.882;151.134;2022-12-18T00:13:07;1.10;;;0.40;;
16391;SDS011;8305;-33.882;151.134;2022-12-18T00:15:38;1.88;;;0.40;;
16391;SDS011;8305;-33.882;151.134;2022-12-18T00:18:09;0.90;;;0.30;;
16391;SDS011;8305;-33.882;151.134;2022-12-18T00:20:40;1.77;;;0.57;;
16391;SDS011;8305;-33.882;151.134;2022-12-18T00:23:12;2.35;;;0.50;;
16391;SDS011;8305;-33.882;151.134;2022-12-18T00:25:46;1.30;;;0.40;;
16391;SDS011;8305;-33.882;151.134;2022-12-18T00:28:16;2.20;;;0.50;;
16391;SDS011;8305;-33.882;151.134;2022-12-18T00:30:47;2.22;;;0.50;;
16391;SDS011;8305;-33.882;151.134;2022-12-18T00:33:18;1.10;;;0.40;;
16391;SDS011;8305;-33.882;151.134;2022-12-18T00:35:49;0.32;;;0.30;;
16391;SDS011;8305;-33.882;151.134;2022-12-18T00:38:21;1.33;;;0.30;;
16391;SDS011;8305;-33.882;151.134;2022-12-18T00:40:53;0.20;;;0.20;;
16391;SDS011;8305;-33.882;151.134;2022-12-18T00:43:23;1.83;;;0.20;;
16391;SDS011;8305;-33.882;151.134;2022-12-18T00:45:53;0.90;;;0.20;;
16391;SDS011;8305;-33.882;151.134;2022-12-18T00:48:24;3.10;;;0.45;;
16391;SDS011;8305;-33.882;151.134;2022-12-18T00:50:55;2.08;;;0.30;;
16391;SDS011;8305;-33.882;151.134;2022-12-18T00:53:27;1.95;;;0.30;;
16391;SDS011;8305;-33.882;151.134;2022-12-18T00:55:58;2.42;;;0.40;;
16391;SDS011;8305;-33.882;151.134;2022-12-18T00:58:29;1.65;;;0.40;;
16391;SDS011;8305;-33.882;151.134;2022-12-18T01:01:03;2.55;;;0.47;;
16391;SDS011;8305;-33.882;151.134;2022-12-18T01:03:34;3.33;;;0.40;;
16391;SDS011;8305;-33.882;151.134;2022-12-18T01:06:06;4.43;;;0.47;;
16391;SDS011;8305;-33.882;151.134;2022-12-18T01:08:39;2.70;;;0.40;;
16391;SDS011;8305;-33.882;151.134;2022-12-18T01:11:11;1.58;;;0.50;;
16391;SDS011;8305;-33.882;151.134;2022-12-18T01:13:43;0.75;;;0.40;;
16391;SDS011;8305;-33.882;151.134;2022-12-18T01:16:14;1.67;;;0.30;;
16391;SDS011;8305;-33.882;151.134;2022-12-18T01:18:45;1.20;;;0.38;;
16391;SDS011;8305;-33.882;151.134;2022-12-18T01:21:19;3.33;;;0.70;;
16391;SDS011;8305;-33.882;151.134;2022-12-18T01:23:56;2.75;;;0.50;;
16391;SDS011;8305;-33.882;151.134;2022-12-18T01:26:26;1.80;;;0.50;;
16391;SDS011;8305;-33.882;151.134;2022-12-18T01:28:57;1.85;;;0.50;;
16391;SDS011;8305;-33.882;151.134;2022-12-18T01:31:29;4.22;;;0.70;;
16391;SDS011;8305;-33.882;151.134;2022-12-18T01:34:00;3.63;;;0.60;;
16391;SDS011;8305;-33.882;151.134;2022-12-18T01:36:32;2.90;;;0.70;;
16391;SDS011;8305;-33.882;151.134;2022-12-18T01:39:07;4.13;;;0.70;;
16391;SDS011;8305;-33.882;151.134;2022-12-18T01:41:39;4.25;;;0.65;;
16391;SDS011;8305;-33.882;151.134;2022-12-18T01:47:23;6.68;;;0.90;;
16391;SDS011;8305;-33.882;151.134;2022-12-18T01:49:57;5.15;;;0.95;;
16391;SDS011;8305;-33.882;151.134;2022-12-18T01:52:31;5.00;;;0.90;;
16391;SDS011;8305;-33.882;151.134;2022-12-18T01:55:08;6.10;;;1.17;;
16391;SDS011;8305;-33.882;151.134;2022-12-18T01:57:41;5.45;;;0.90;;
16391;SDS011;8305;-33.882;151.134;2022-12-18T02:00:13;4.32;;;0.90;;
16391;SDS011;8305;-33.882;151.134;2022-12-18T02:02:45;9.38;;;1.20;;
16391;SDS011;8305;-33.882;151.134;2022-12-18T02:05:17;5.22;;;1.00;;
16391;SDS011;8305;-33.882;151.134;2022-12-18T02:07:54;9.48;;;1.10;;
16391;SDS011;8305;-33.882;151.134;2022-12-18T02:10:39;10.98;;;2.10;;
16391;SDS011;8305;-33.882;151.134;2022-12-18T02:13:16;6.32;;;1.30;;
16391;SDS011;8305;-33.882;151.134;2022-12-18T02:15:54;10.10;;;1.45;;
16391;SDS011;8305;-33.882;151.134;2022-12-18T02:18:35;6.82;;;1.10;;
16391;SDS011;8305;-33.882;151.134;2022-12-18T02:21:11;3.65;;;0.98;;
16391;SDS011;8305;-33.882;151.134;2022-12-18T02:23:50;7.13;;;1.05;;
16391;SDS011;8305;-33.882;151.134;2022-12-18T02:26:28;4.93;;;1.30;;
16391;SDS011;8305;-33.882;151.134;2022-12-18T02:29:03;10.27;;;1.00;;
16391;SDS011;8305;-33.882;151.134;2022-12-18T02:31:42;5.95;;;1.10;;
16391;SDS011;8305;-33.882;151.134;2022-12-18T02:34:16;7.80;;;1.30;;
16391;SDS011;8305;-33.882;151.134;2022-12-18T02:36:50;5.38;;;1.00;;
16391;SDS011;8305;-33.882;151.134;2022-12-18T02:39:22;9.77;;;1.85;;
16391;SDS011;8305;-33.882;151.134;2022-12-18T02:41:57;7.43;;;1.75;;
16391;SDS011;8305;-33.882;151.134;2022-12-18T02:44:34;5.68;;;1.05;;
16391;SDS011;8305;-33.882;151.134;2022-12-18T02:47:10;5.25;;;1.20;;
16391;SDS011;8305;-33.882;151.134;2022-12-18T02:49:44;13.63;;;1.63;;
16391;SDS011;8305;-33.882;151.134;2022-12-18T02:52:28;7.75;;;1.40;;
16391;SDS011;8305;-33.882;151.134;2022-12-18T02:55:08;6.78;;;1.10;;
16391;SDS011;8305;-33.882;151.134;2022-12-18T02:57:56;2.22;;;0.65;;
16391;SDS011;8305;-33.882;151.134;2022-12-18T03:00:33;5.82;;;1.05;;
16391;SDS011;8305;-33.882;151.134;2022-12-18T03:03:09;5.22;;;1.00;;
16391;SDS011;8305;-33.882;151.134;2022-12-18T03:05:43;4.90;;;0.88;;
16391;SDS011;8305;-33.882;151.134;2022-12-18T03:08:18;3.15;;;0.70;;
16391;SDS011;8305;-33.882;151.134;2022-12-18T03:10:54;6.28;;;1.33;;
16391;SDS011;8305;-33.882;151.134;2022-12-18T03:13:32;3.90;;;0.90;;
16391;SDS011;8305;-33.882;151.134;2022-12-18T03:16:06;6.00;;;0.70;;
16391;SDS011;8305;-33.882;151.134;2022-12-18T03:18:44;4.57;;;0.85;;
16391;SDS011;8305;-33.882;151.134;2022-12-18T03:21:21;3.88;;;0.80;;
16391;SDS011;8305;-33.882;151.134;2022-12-18T03:23:57;6.82;;;0.90;;
16391;SDS011;8305;-33.882;151.134;2022-12-18T03:26:28;3.22;;;0.88;;
16391;SDS011;8305;-33.882;151.134;2022-12-18T03:29:03;4.30;;;0.75;;
16391;SDS011;8305;-33.882;151.134;2022-12-18T03:31:38;7.80;;;0.93;;
16391;SDS011;8305;-33.882;151.134;2022-12-18T03:34:12;5.80;;;0.57;;
16391;SDS011;8305;-33.882;151.134;2022-12-18T03:36:46;3.45;;;0.75;;
16391;SDS011;8305;-33.882;151.134;2022-12-18T03:39:19;19.80;;;12.57;;
16391;SDS011;8305;-33.882;151.134;2022-12-18T03:41:51;6.45;;;3.47;;
16391;SDS011;8305;-33.882;151.134;2022-12-18T03:44:26;7.55;;;3.00;;
16391;SDS011;8305;-33.882;151.134;2022-12-18T03:47:02;5.95;;;1.13;;
16391;SDS011;8305;-33.882;151.134;2022-12-18T03:49:38;2.75;;;0.70;;
16391;SDS011;8305;-33.882;151.134;2022-12-18T03:52:16;4.35;;;0.73;;
16391;SDS011;8305;-33.882;151.134;2022-12-18T03:54:50;5.22;;;0.80;;
16391;SDS011;8305;-33.882;151.134;2022-12-18T03:57:24;6.60;;;0.90;;
16391;SDS011;8305;-33.882;151.134;2022-12-18T04:00:00;3.47;;;0.55;;
16391;SDS011;8305;-33.882;151.134;2022-12-18T04:02:33;7.03;;;1.10;;
16391;SDS011;8305;-33.882;151.134;2022-12-18T04:05:07;6.82;;;0.90;;
16391;SDS011;8305;-33.882;151.134;2022-12-18T04:07:38;7.57;;;0.93;;
16391;SDS011;8305;-33.882;151.134;2022-12-18T04:10:10;6.10;;;0.93;;
16391;SDS011;8305;-33.882;151.134;2022-12-18T04:12:42;5.65;;;0.80;;
16391;SDS011;8305;-33.882;151.134;2022-12-18T04:15:15;4.57;;;0.85;;
16391;SDS011;8305;-33.882;151.134;2022-12-18T04:17:47;6.13;;;0.90;;
16391;SDS011;8305;-33.882;151.134;2022-12-18T04:20:18;3.53;;;0.73;;
16391;SDS011;8305;-33.882;151.134;2022-12-18T04:22:49;5.10;;;1.00;;
16391;SDS011;8305;-33.882;151.134;2022-12-18T04:25:20;5.97;;;1.02;;
16391;SDS011;8305;-33.882;151.134;2022-12-18T04:27:51;3.40;;;0.70;;
16391;SDS011;8305;-33.882;151.134;2022-12-18T04:30:25;3.42;;;0.70;;
16391;SDS011;8305;-33.882;151.134;2022-12-18T04:32:55;5.13;;;0.60;;
16391;SDS011;8305;-33.882;151.134;2022-12-18T04:35:26;4.05;;;0.95;;
16391;SDS011;8305;-33.882;151.134;2022-12-18T04:37:57;3.33;;;0.60;;
16391;SDS011;8305;-33.882;151.134;2022-12-18T04:40:28;6.38;;;0.95;;
16391;SDS011;8305;-33.882;151.134;2022-12-18T04:42:59;4.20;;;0.65;;
16391;SDS011;8305;-33.882;151.134;2022-12-18T04:45:32;4.75;;;0.80;;
16391;SDS011;8305;-33.882;151.134;2022-12-18T04:48:03;4.93;;;0.90;;
16391;SDS011;8305;-33.882;151.134;2022-12-18T04:50:34;7.32;;;0.88;;
16391;SDS011;8305;-33.882;151.134;2022-12-18T04:53:05;2.28;;;0.60;;
16391;SDS011;8305;-33.882;151.134;2022-12-18T04:55:36;5.10;;;0.70;;
16391;SDS011;8305;-33.882;151.134;2022-12-18T04:58:07;3.33;;;0.60;;
16391;SDS011;8305;-33.882;151.134;2022-12-18T05:00:39;2.80;;;0.60;;
16391;SDS011;8305;-33.882;151.134;2022-12-18T05:03:10;2.35;;;0.60;;
16391;SDS011;8305;-33.882;151.134;2022-12-18T05:05:41;3.35;;;0.60;;
16391;SDS011;8305;-33.882;151.134;2022-12-18T05:08:12;4.63;;;0.70;;
16391;SDS011;8305;-33.882;151.134;2022-12-18T05:10:43;3.80;;;0.70;;
16391;SDS011;8305;-33.882;151.134;2022-12-18T05:13:14;2.38;;;0.60;;
16391;SDS011;8305;-33.882;151.134;2022-12-18T05:15:50;2.42;;;0.63;;
16391;SDS011;8305;-33.882;151.134;2022-12-18T05:18:21;2.67;;;0.55;;
16391;SDS011;8305;-33.882;151.134;2022-12-18T05:20:53;3.47;;;0.68;;
16391;SDS011;8305;-33.882;151.134;2022-12-18T05:23:24;4.95;;;0.80;;
16391;SDS011;8305;-33.882;151.134;2022-12-18T05:25:56;5.43;;;0.60;;
16391;SDS011;8305;-33.882;151.134;2022-12-18T05:28:28;8.32;;;0.88;;
16391;SDS011;8305;-33.882;151.134;2022-12-18T05:31:02;4.07;;;0.73;;
16391;SDS011;8305;-33.882;151.134;2022-12-18T05:33:33;2.85;;;0.73;;
16391;SDS011;8305;-33.882;151.134;2022-12-18T05:36:06;2.15;;;0.60;;
16391;SDS011;8305;-33.882;151.134;2022-12-18T05:38:38;3.72;;;0.55;;
16391;SDS011;8305;-33.882;151.134;2022-12-18T05:41:09;2.13;;;0.45;;
16391;SDS011;8305;-33.882;151.134;2022-12-18T05:43:40;3.78;;;0.43;;
16391;SDS011;8305;-33.882;151.134;2022-12-18T05:46:14;5.13;;;0.57;;
16391;SDS011;8305;-33.882;151.134;2022-12-18T05:48:45;2.33;;;0.60;;
16391;SDS011;8305;-33.882;151.134;2022-12-18T05:51:18;1.65;;;0.60;;
16391;SDS011;8305;-33.882;151.134;2022-12-18T05:53:50;3.45;;;0.63;;
16391;SDS011;8305;-33.882;151.134;2022-12-18T05:56:21;2.95;;;0.63;;
16391;SDS011;8305;-33.882;151.134;2022-12-18T05:58:52;4.93;;;0.52;;
16391;SDS011;8305;-33.882;151.134;2022-12-18T06:01:25;2.38;;;0.65;;
16391;SDS011;8305;-33.882;151.134;2022-12-18T06:03:56;3.75;;;0.82;;
16391;SDS011;8305;-33.882;151.134;2022-12-18T06:06:27;3.60;;;0.80;;
16391;SDS011;8305;-33.882;151.134;2022-12-18T06:08:58;5.32;;;1.13;;
16391;SDS011;8305;-33.882;151.134;2022-12-18T06:11:34;5.45;;;0.73;;
16391;SDS011;8305;-33.882;151.134;2022-12-18T06:14:11;2.70;;;0.68;;
16391;SDS011;8305;-33.882;151.134;2022-12-18T06:16:45;6.45;;;0.82;;
16391;SDS011;8305;-33.882;151.134;2022-12-18T06:19:16;4.55;;;0.90;;
16391;SDS011;8305;-33.882;151.134;2022-12-18T06:21:49;5.68;;;0.98;;
16391;SDS011;8305;-33.882;151.134;2022-12-18T06:24:20;6.32;;;1.15;;
16391;SDS011;8305;-33.882;151.134;2022-12-18T06:26:51;3.58;;;0.80;;
16391;SDS011;8305;-33.882;151.134;2022-12-18T06:29:22;4.32;;;0.80;;
16391;SDS011;8305;-33.882;151.134;2022-12-18T06:31:54;5.13;;;1.00;;
16391;SDS011;8305;-33.882;151.134;2022-12-18T06:34:25;4.85;;;0.95;;
16391;SDS011;8305;-33.882;151.134;2022-12-18T06:36:56;3.60;;;0.77;;
16391;SDS011;8305;-33.882;151.134;2022-12-18T06:39:30;7.57;;;0.80;;
16391;SDS011;8305;-33.882;151.134;2022-12-18T06:42:02;3.65;;;0.75;;
16391;SDS011;8305;-33.882;151.134;2022-12-18T06:44:33;4.85;;;0.73;;
16391;SDS011;8305;-33.882;151.134;2022-12-18T06:47:06;2.45;;;0.63;;
16391;SDS011;8305;-33.882;151.134;2022-12-18T06:49:37;4.35;;;0.80;;
16391;SDS011;8305;-33.882;151.134;2022-12-18T06:52:08;3.72;;;0.63;;
16391;SDS011;8305;-33.882;151.134;2022-12-18T06:54:38;3.45;;;1.02;;
16391;SDS011;8305;-33.882;151.134;2022-12-18T06:57:09;2.05;;;0.65;;
16391;SDS011;8305;-33.882;151.134;2022-12-18T06:59:40;3.97;;;0.80;;
16391;SDS011;8305;-33.882;151.134;2022-12-18T07:02:13;3.38;;;0.70;;
16391;SDS011;8305;-33.882;151.134;2022-12-18T07:04:44;7.05;;;0.95;;
16391;SDS011;8305;-33.882;151.134;2022-12-18T07:07:15;2.88;;;0.65;;
16391;SDS011;8305;-33.882;151.134;2022-12-18T07:09:45;3.65;;;0.65;;
16391;SDS011;8305;-33.882;151.134;2022-12-18T07:12:17;4.78;;;0.70;;
16391;SDS011;8305;-33.882;151.134;2022-12-18T07:14:48;3.40;;;1.10;;
16391;SDS011;8305;-33.882;151.134;2022-12-18T07:17:21;4.63;;;0.93;;
16391;SDS011;8305;-33.882;151.134;2022-12-18T07:19:52;2.78;;;0.70;;
16391;SDS011;8305;-33.882;151.134;2022-12-18T07:22:22;4.45;;;0.80;;
16391;SDS011;8305;-33.882;151.134;2022-12-18T07:24:55;1.90;;;0.60;;
16391;SDS011;8305;-33.882;151.134;2022-12-18T07:27:25;3.88;;;0.70;;
16391;SDS011;8305;-33.882;151.134;2022-12-18T07:29:56;2.90;;;0.60;;
16391;SDS011;8305;-33.882;151.134;2022-12-18T07:32:29;5.32;;;0.95;;
16391;SDS011;8305;-33.882;151.134;2022-12-18T07:35:00;4.57;;;0.63;;
16391;SDS011;8305;-33.882;151.134;2022-12-18T07:37:33;5.50;;;0.80;;
16391;SDS011;8305;-33.882;151.134;2022-12-18T07:40:04;6.10;;;1.00;;
16391;SDS011;8305;-33.882;151.134;2022-12-18T07:42:36;4.93;;;0.77;;
16391;SDS011;8305;-33.882;151.134;2022-12-18T07:45:07;1.75;;;0.57;;
16391;SDS011;8305;-33.882;151.134;2022-12-18T07:47:40;3.05;;;0.80;;
16391;SDS011;8305;-33.882;151.134;2022-12-18T07:50:10;4.63;;;0.95;;
16391;SDS011;8305;-33.882;151.134;2022-12-18T07:52:41;3.70;;;0.70;;
16391;SDS011;8305;-33.882;151.134;2022-12-18T07:55:12;2.75;;;0.63;;
16391;SDS011;8305;-33.882;151.134;2022-12-18T07:57:43;4.75;;;0.70;;
16391;SDS011;8305;-33.882;151.134;2022-12-18T08:00:14;5.15;;;0.80;;
16391;SDS011;8305;-33.882;151.134;2022-12-18T08:02:48;5.70;;;0.98;;
16391;SDS011;8305;-33.882;151.134;2022-12-18T08:05:19;8.93;;;0.90;;
16391;SDS011;8305;-33.882;151.134;2022-12-18T08:07:50;8.48;;;0.90;;
16391;SDS011;8305;-33.882;151.134;2022-12-18T08:10:22;5.60;;;0.90;;
16391;SDS011;8305;-33.882;151.134;2022-12-18T08:12:53;4.60;;;1.05;;
16391;SDS011;8305;-33.882;151.134;2022-12-18T08:15:23;4.85;;;0.82;;
16391;SDS011;8305;-33.882;151.134;2022-12-18T08:17:58;3.25;;;0.75;;
16391;SDS011;8305;-33.882;151.134;2022-12-18T08:20:29;3.40;;;0.63;;
16391;SDS011;8305;-33.882;151.134;2022-12-18T08:22:59;2.83;;;0.52;;
16391;SDS011;8305;-33.882;151.134;2022-12-18T08:25:30;1.38;;;0.60;;
16391;SDS011;8305;-33.882;151.134;2022-12-18T08:28:01;3.90;;;0.60;;
16391;SDS011;8305;-33.882;151.134;2022-12-18T08:30:32;3.22;;;0.60;;
16391;SDS011;8305;-33.882;151.134;2022-12-18T08:33:05;2.05;;;0.60;;
16391;SDS011;8305;-33.882;151.134;2022-12-18T08:35:36;3.70;;;0.60;;
16391;SDS011;8305;-33.882;151.134;2022-12-18T08:38:07;2.58;;;0.50;;
16391;SDS011;8305;-33.882;151.134;2022-12-18T08:40:39;3.42;;;0.65;;
16391;SDS011;8305;-33.882;151.134;2022-12-18T08:43:10;3.55;;;0.70;;
16391;SDS011;8305;-33.882;151.134;2022-12-18T08:45:57;2.40;;;0.75;;
16391;SDS011;8305;-33.882;151.134;2022-12-18T08:48:29;1.90;;;0.60;;
16391;SDS011;8305;-33.882;151.134;2022-12-18T08:51:00;3.08;;;0.60;;
16391;SDS011;8305;-33.882;151.134;2022-12-18T08:53:31;5.68;;;0.88;;
16391;SDS011;8305;-33.882;151.134;2022-12-18T08:56:02;5.47;;;0.77;;
16391;SDS011;8305;-33.882;151.134;2022-12-18T08:58:33;7.22;;;0.80;;
16391;SDS011;8305;-33.882;151.134;2022-12-18T09:01:04;2.72;;;0.60;;
16391;SDS011;8305;-33.882;151.134;2022-12-18T09:03:39;4.00;;;0.70;;
16391;SDS011;8305;-33.882;151.134;2022-12-18T09:06:12;4.93;;;0.93;;
16391;SDS011;8305;-33.882;151.134;2022-12-18T09:08:44;2.88;;;0.60;;
16391;SDS011;8305;-33.882;151.134;2022-12-18T09:11:15;4.07;;;0.60;;
16391;SDS011;8305;-33.882;151.134;2022-12-18T09:13:50;4.57;;;0.80;;
16391;SDS011;8305;-33.882;151.134;2022-12-18T09:16:21;2.15;;;0.73;;
16391;SDS011;8305;-33.882;151.134;2022-12-18T09:18:56;1.50;;;0.50;;
16391;SDS011;8305;-33.882;151.134;2022-12-18T09:21:28;3.38;;;0.70;;
16391;SDS011;8305;-33.882;151.134;2022-12-18T09:23:59;2.05;;;0.70;;
16391;SDS011;8305;-33.882;151.134;2022-12-18T09:26:30;3.13;;;0.75;;
16391;SDS011;8305;-33.882;151.134;2022-12-18T09:29:02;3.78;;;0.88;;
16391;SDS011;8305;-33.882;151.134;2022-12-18T09:31:33;4.10;;;0.77;;
16391;SDS011;8305;-33.882;151.134;2022-12-18T09:34:07;3.28;;;0.70;;
16391;SDS011;8305;-33.882;151.134;2022-12-18T09:36:38;3.17;;;0.77;;
16391;SDS011;8305;-33.882;151.134;2022-12-18T09:39:09;2.75;;;0.60;;
16391;SDS011;8305;-33.882;151.134;2022-12-18T09:41:41;5.30;;;0.80;;
16391;SDS011;8305;-33.882;151.134;2022-12-18T09:44:21;4.07;;;0.90;;
16391;SDS011;8305;-33.882;151.134;2022-12-18T09:49:45;2.03;;;0.70;;
16391;SDS011;8305;-33.882;151.134;2022-12-18T09:52:19;3.45;;;0.90;;
16391;SDS011;8305;-33.882;151.134;2022-12-18T09:54:56;3.97;;;0.90;;
16391;SDS011;8305;-33.882;151.134;2022-12-18T09:57:31;3.95;;;0.93;;
16391;SDS011;8305;-33.882;151.134;2022-12-18T10:00:06;3.78;;;0.70;;
16391;SDS011;8305;-33.882;151.134;2022-12-18T10:02:44;5.88;;;0.90;;
16391;SDS011;8305;-33.882;151.134;2022-12-18T10:05:19;1.45;;;0.60;;
16391;SDS011;8305;-33.882;151.134;2022-12-18T10:07:59;3.63;;;0.65;;
16391;SDS011;8305;-33.882;151.134;2022-12-18T10:10:36;3.30;;;0.85;;
16391;SDS011;8305;-33.882;151.134;2022-12-18T10:13:15;3.28;;;0.68;;
16391;SDS011;8305;-33.882;151.134;2022-12-18T10:15:54;4.15;;;0.70;;
16391;SDS011;8305;-33.882;151.134;2022-12-18T10:18:42;4.80;;;0.95;;
16391;SDS011;8305;-33.882;151.134;2022-12-18T10:21:30;3.05;;;0.70;;
16391;SDS011;8305;-33.882;151.134;2022-12-18T10:24:10;2.78;;;0.68;;
16391;SDS011;8305;-33.882;151.134;2022-12-18T10:26:49;5.75;;;0.80;;
16391;SDS011;8305;-33.882;151.134;2022-12-18T10:29:21;5.68;;;0.80;;
16391;SDS011;8305;-33.882;151.134;2022-12-18T10:31:53;3.03;;;0.90;;
16391;SDS011;8305;-33.882;151.134;2022-12-18T10:34:24;4.70;;;0.88;;
16391;SDS011;8305;-33.882;151.134;2022-12-18T10:36:57;3.03;;;0.88;;
16391;SDS011;8305;-33.882;151.134;2022-12-18T10:39:29;3.63;;;0.80;;
16391;SDS011;8305;-33.882;151.134;2022-12-18T10:42:09;6.18;;;0.93;;
16391;SDS011;8305;-33.882;151.134;2022-12-18T10:44:45;4.90;;;0.95;;
16391;SDS011;8305;-33.882;151.134;2022-12-18T10:47:29;4.93;;;0.85;;
16391;SDS011;8305;-33.882;151.134;2022-12-18T10:50:02;3.72;;;0.90;;
16391;SDS011;8305;-33.882;151.134;2022-12-18T10:52:36;8.90;;;1.10;;
16391;SDS011;8305;-33.882;151.134;2022-12-18T10:55:13;5.53;;;1.23;;
16391;SDS011;8305;-33.882;151.134;2022-12-18T10:57:46;5.53;;;0.93;;
16391;SDS011;8305;-33.882;151.134;2022-12-18T11:00:24;8.02;;;1.25;;
16391;SDS011;8305;-33.882;151.134;2022-12-18T11:02:56;7.88;;;1.85;;
16391;SDS011;8305;-33.882;151.134;2022-12-18T11:05:27;7.68;;;1.00;;
16391;SDS011;8305;-33.882;151.134;2022-12-18T11:08:01;5.80;;;1.00;;
16391;SDS011;8305;-33.882;151.134;2022-12-18T11:10:32;4.05;;;1.10;;
16391;SDS011;8305;-33.882;151.134;2022-12-18T11:13:17;6.25;;;1.00;;
16391;SDS011;8305;-33.882;151.134;2022-12-18T11:15:49;4.53;;;1.00;;
16391;SDS011;8305;-33.882;151.134;2022-12-18T11:18:23;5.32;;;0.90;;
16391;SDS011;8305;-33.882;151.134;2022-12-18T11:20:57;5.20;;;1.20;;
16391;SDS011;8305;-33.882;151.134;2022-12-18T11:23:32;5.72;;;1.10;;
16391;SDS011;8305;-33.882;151.134;2022-12-18T11:26:04;5.32;;;0.90;;
16391;SDS011;8305;-33.882;151.134;2022-12-18T11:28:36;7.88;;;1.35;;
16391;SDS011;8305;-33.882;151.134;2022-12-18T11:31:19;5.65;;;1.10;;
16391;SDS011;8305;-33.882;151.134;2022-12-18T11:34:01;6.50;;;1.20;;
16391;SDS011;8305;-33.882;151.134;2022-12-18T11:36:38;3.55;;;0.90;;
16391;SDS011;8305;-33.882;151.134;2022-12-18T11:39:14;7.78;;;1.38;;
16391;SDS011;8305;-33.882;151.134;2022-12-18T11:41:52;7.47;;;1.00;;
16391;SDS011;8305;-33.882;151.134;2022-12-18T11:44:44;6.45;;;1.23;;
16391;SDS011;8305;-33.882;151.134;2022-12-18T11:47:23;8.27;;;1.00;;
16391;SDS011;8305;-33.882;151.134;2022-12-18T11:50:00;7.63;;;1.20;;
16391;SDS011;8305;-33.882;151.134;2022-12-18T11:52:33;4.95;;;1.00;;
16391;SDS011;8305;-33.882;151.134;2022-12-18T11:55:12;4.72;;;1.17;;
16391;SDS011;8305;-33.882;151.134;2022-12-18T11:57:47;8.93;;;1.50;;
16391;SDS011;8305;-33.882;151.134;2022-12-18T12:00:26;4.80;;;1.10;;
16391;SDS011;8305;-33.882;151.134;2022-12-18T12:03:06;4.53;;;0.95;;
16391;SDS011;8305;-33.882;151.134;2022-12-18T12:05:58;6.70;;;1.33;;
16391;SDS011;8305;-33.882;151.134;2022-12-18T12:08:38;5.95;;;1.20;;
16391;SDS011;8305;-33.882;151.134;2022-12-18T12:11:22;8.40;;;1.30;;
16391;SDS011;8305;-33.882;151.134;2022-12-18T12:14:07;7.22;;;1.30;;
16391;SDS011;8305;-33.882;151.134;2022-12-18T12:16:55;5.82;;;1.35;;
16391;SDS011;8305;-33.882;151.134;2022-12-18T12:19:37;3.92;;;1.00;;
16391;SDS011;8305;-33.882;151.134;2022-12-18T12:22:18;7.93;;;1.70;;
16391;SDS011;8305;-33.882;151.134;2022-12-18T12:25:01;5.13;;;0.88;;
16391;SDS011;8305;-33.882;151.134;2022-12-18T12:27:46;10.80;;;1.23;;
16391;SDS011;8305;-33.882;151.134;2022-12-18T12:30:26;5.68;;;1.00;;
16391;SDS011;8305;-33.882;151.134;2022-12-18T12:33:11;4.28;;;1.00;;
16391;SDS011;8305;-33.882;151.134;2022-12-18T12:35:52;5.30;;;1.20;;
16391;SDS011;8305;-33.882;151.134;2022-12-18T12:38:30;6.55;;;0.90;;
16391;SDS011;8305;-33.882;151.134;2022-12-18T12:41:06;5.97;;;0.90;;
16391;SDS011;8305;-33.882;151.134;2022-12-18T12:43:57;8.38;;;1.17;;
16391;SDS011;8305;-33.882;151.134;2022-12-18T12:46:32;6.35;;;1.35;;
16391;SDS011;8305;-33.882;151.134;2022-12-18T12:49:09;3.83;;;0.80;;
16391;SDS011;8305;-33.882;151.134;2022-12-18T12:51:43;6.28;;;0.90;;
16391;SDS011;8305;-33.882;151.134;2022-12-18T12:54:19;8.85;;;1.30;;
16391;SDS011;8305;-33.882;151.134;2022-12-18T12:56:54;5.28;;;1.10;;
16391;SDS011;8305;-33.882;151.134;2022-12-18T12:59:40;5.43;;;1.20;;
16391;SDS011;8305;-33.882;151.134;2022-12-18T13:02:18;6.82;;;1.33;;
16391;SDS011;8305;-33.882;151.134;2022-12-18T13:04:54;8.00;;;1.23;;
16391;SDS011;8305;-33.882;151.134;2022-12-18T13:07:32;7.82;;;1.30;;
16391;SDS011;8305;-33.882;151.134;2022-12-18T13:13:04;11.05;;;1.40;;
16391;SDS011;8305;-33.882;151.134;2022-12-18T13:18:33;9.32;;;1.38;;
16391;SDS011;8305;-33.882;151.134;2022-12-18T13:21:08;6.63;;;1.48;;
16391;SDS011;8305;-33.882;151.134;2022-12-18T13:23:47;10.27;;;1.38;;
16391;SDS011;8305;-33.882;151.134;2022-12-18T13:29:06;7.22;;;1.52;;
16391;SDS011;8305;-33.882;151.134;2022-12-18T13:38:02;8.93;;;1.50;;
16391;SDS011;8305;-33.882;151.134;2022-12-18T13:40:54;11.77;;;1.80;;
16391;SDS011;8305;-33.882;151.134;2022-12-18T13:46:18;17.77;;;2.47;;
16391;SDS011;8305;-33.882;151.134;2022-12-18T13:48:53;11.88;;;1.90;;
16391;SDS011;8305;-33.882;151.134;2022-12-18T13:51:26;16.08;;;2.10;;
16391;SDS011;8305;-33.882;151.134;2022-12-18T13:53:58;11.35;;;2.00;;
16391;SDS011;8305;-33.882;151.134;2022-12-18T13:56:31;15.43;;;2.45;;
16391;SDS011;8305;-33.882;151.134;2022-12-18T13:59:10;15.10;;;2.78;;
16391;SDS011;8305;-33.882;151.134;2022-12-18T14:01:43;14.25;;;1.80;;
16391;SDS011;8305;-33.882;151.134;2022-12-18T14:04:21;19.77;;;2.88;;
16391;SDS011;8305;-33.882;151.134;2022-12-18T14:06:55;12.13;;;2.13;;
16391;SDS011;8305;-33.882;151.134;2022-12-18T14:09:28;18.42;;;2.58;;
16391;SDS011;8305;-33.882;151.134;2022-12-18T14:12:02;21.13;;;2.38;;
16391;SDS011;8305;-33.882;151.134;2022-12-18T14:14:50;14.82;;;2.35;;
16391;SDS011;8305;-33.882;151.134;2022-12-18T14:17:21;17.10;;;2.20;;
16391;SDS011;8305;-33.882;151.134;2022-12-18T14:19:54;12.65;;;2.38;;
16391;SDS011;8305;-33.882;151.134;2022-12-18T14:22:26;13.80;;;2.08;;
16391;SDS011;8305;-33.882;151.134;2022-12-18T14:25:13;13.90;;;2.00;;
16391;SDS011;8305;-33.882;151.134;2022-12-18T14:27:46;11.30;;;2.25;;
16391;SDS011;8305;-33.882;151.134;2022-12-18T14:30:26;13.38;;;1.90;;
16391;SDS011;8305;-33.882;151.134;2022-12-18T14:33:03;18.17;;;2.47;;
16391;SDS011;8305;-33.882;151.134;2022-12-18T14:35:43;11.55;;;1.88;;
16391;SDS011;8305;-33.882;151.134;2022-12-18T14:38:22;12.50;;;1.70;;
16391;SDS011;8305;-33.882;151.134;2022-12-18T14:40:56;14.77;;;2.17;;
16391;SDS011;8305;-33.882;151.134;2022-12-18T14:43:31;14.40;;;2.15;;
16391;SDS011;8305;-33.882;151.134;2022-12-18T14:46:02;11.15;;;2.40;;
16391;SDS011;8305;-33.882;151.134;2022-12-18T14:48:36;8.25;;;1.38;;
16391;SDS011;8305;-33.882;151.134;2022-12-18T14:51:16;15.65;;;2.00;;
16391;SDS011;8305;-33.882;151.134;2022-12-18T14:53:49;14.40;;;2.03;;
16391;SDS011;8305;-33.882;151.134;2022-12-18T14:56:24;8.07;;;1.58;;
16391;SDS011;8305;-33.882;151.134;2022-12-18T14:58:56;7.45;;;1.70;;
16391;SDS011;8305;-33.882;151.134;2022-12-18T15:01:28;10.68;;;1.27;;
16391;SDS011;8305;-33.882;151.134;2022-12-18T15:04:02;14.88;;;1.65;;
16391;SDS011;8305;-33.882;151.134;2022-12-18T15:06:36;10.00;;;1.55;;
16391;SDS011;8305;-33.882;151.134;2022-12-18T15:09:21;9.07;;;1.90;;
16391;SDS011;8305;-33.882;151.134;2022-12-18T15:11:55;7.85;;;1.38;;
16391;SDS011;8305;-33.882;151.134;2022-12-18T15:14:34;9.15;;;1.75;;
16391;SDS011;8305;-33.882;151.134;2022-12-18T15:17:14;9.90;;;1.52;;
16391;SDS011;8305;-33.882;151.134;2022-12-18T15:19:47;8.75;;;1.55;;
16391;SDS011;8305;-33.882;151.134;2022-12-18T15:22:25;9.40;;;1.92;;
16391;SDS011;8305;-33.882;151.134;2022-12-18T15:24:57;8.85;;;1.70;;